Kennedy, AL (35574)

7:22 PM CDT on September 22, 2014 (GMT -0500)
Vernon Alabama | Change Station
CLOSE
Current Station
Personal Weather Station
Location: Sulligent, AL
Elevation: 372 ft
Nearby Weather Stations

Elev 372 ft 33.79 °N, 88.21 °W | Updated 9 minutes ago

Clear
Clear
70.9 °F
Feels Like 76 °F
N
0.0
Wind Variable Wind from NNW
Gusts 0.0 mph

Today
High -- | Low -- °F
--% Chance of Precip.
Yesterday
High -- | Low -- °F
Precip. -- in
6:39 AM 6:48 PM
Waning Crescent, 1% visible
Pressure 30.11 in
Visibility 10.0 miles
Clouds Clear
Heat Index 76 °F
Dew Point 56 °F
Humidity 59%
Rainfall 0.00 in
Snow Depth Not available.
UV 0 out of 12
Pollen 7.50 out of 12
Air Quality Not available.
Flu Activity Not available.
METAR KCBM 222358Z AUTO 35005KT 10SM CLR 22/10 A3010 RMK AO2 SLP194 T02170104 10267 20217 52007 $

More Conditions Fewer Conditions

Pressure 30.11 in
Visibility 10.0 miles
Clouds Clear
Heat Index 76 °F
Dew Point 56 °F
Humidity 59%
Rainfall 0.00 in
Snow Depth Not available.
UV 0 out of 12
Pollen 7.50 out of 12
Air Quality Not available.
Flu Activity Not available.
METAR KCBM 222358Z AUTO 35005KT 10SM CLR 22/10 A3010 RMK AO2 SLP194 T02170104 10267 20217 52007 $

More Conditions Fewer Conditions

10-Day Weather Forecast

Almanac

Astronomy

Sep. 22, 2014 Rise Set
Actual Time 6:39 AM CDT 6:48 PM CDT
Civil Twilight 6:14 AM CDT 7:13 PM CDT
Nautical Twilight 5:45 AM CDT 7:42 PM CDT
Astronomical Twilight 5:16 AM CDT 8:11 PM CDT
Moon 5:11 AM CDT (9/22) 5:54 PM CDT (9/22)
Length of Visible Light 12h 58m
Length of Day
12h 08m
Tomorrow will be 2m 4s shorter.
Waning Crescent, 1% of the Moon is Illuminated
Today
Waning Crescent
Sep 24
New
Oct 1
First Quarter
Oct 8
Full
Oct 15
Last Quarter

Today's Extremes

State Highs State Lows

Community

WunderPhotos

Upload Photos

1,755,574 photos uploaded!

Nearby

Snow Depth

Station Depth Elevation
No new snow has been reported.

Earthquake Activity

City Distance Mag. Time & Date
No recent earthquake activity has been reported nearby.
Minimum magnitude displayed is 2.5.

Coastal Water Temperatures

Place Temperature
No Stations Reporting

Nearby Weather Stations